Rucphen, Netherlands
Current Conditions -  °F | °C
As of 1:25 PM on Sunday 25 Jan 2015 (Local Time) from EHWO Reporting Station
Overcast Overcast  
Wind Chill: 38°   Ceiling: 7600
Heat Index: 43°   Visibility: 6mi
Dew Point: 39°   Wind: 8mph
Humidity: 87%   Direction: 240°WSW
Pressure: 30.39"   Gusts: NA
Location:  51.53°N, 4.56°E
Report Text: EHWO 251225Z AUTO 24007KT 9999 OVC076 06/04 Q1029 BLU
Loading
Personal Weather Stations






























Interactive Weather Map New forecast layout! Learn more

10-Day Weather Forecast

Advertisements
Track Severe Weather on mobile